CFG016 EDDF-KJFK
Flight info
| Callsign | CFG016 |
|---|---|
| Flight time | N/A |
| Altitude | 34000 |
| Route | OBOKA3M OBOKA Z29 TORNU DCT VICOT DCT GALSO Q63 ERING L179 UGBET Q60 OKSAW DCT TEWXI DCT VATRY DCT TORLU DCT AGINI DCT DOGAL/M083F360 DCT 54N020W 53N030W 5130N04000W 50N050W DCT ELSIR/N0477F360 N402C ALLEX DCT ENE PARCH4 |
| Aircraft | A339/H-SDE1E2E3GHIJ1J4J7LM1OP2RVWXYZ/LB1D1 |
Departure
| Time | N/A |
|---|---|
| Airport | Frankfurt Main Airport (EDDF) |
Arrival
| Time | 2026-05-08 01:23 |
|---|---|
| Airport | John F. Kennedy International Airport (KJFK) |
| Time | Latitude | Longitude | Altitude | Speed | Heading |
|---|---|---|---|---|---|
| 2026-05-08 00:45 | 42.49268 | -71.06766 | 35817 ft | 398 kts | 207° |
| 2026-05-08 00:45 | 42.46647 | -71.08017 | 35815 ft | 399 kts | 207° |
| 2026-05-08 00:46 | 42.41419 | -71.10513 | 35818 ft | 398 kts | 207° |
| 2026-05-08 00:46 | 42.36229 | -71.12985 | 35822 ft | 398 kts | 206° |
| 2026-05-08 00:47 | 42.31006 | -71.15470 | 35822 ft | 397 kts | 207° |
| 2026-05-08 00:47 | 42.25826 | -71.17927 | 35822 ft | 397 kts | 207° |
| 2026-05-08 00:48 | 42.20599 | -71.20403 | 35826 ft | 397 kts | 207° |
| 2026-05-08 00:48 | 42.15400 | -71.22859 | 35828 ft | 397 kts | 207° |
| 2026-05-08 00:49 | 42.10186 | -71.25324 | 35825 ft | 396 kts | 207° |
| 2026-05-08 00:49 | 42.04974 | -71.27778 | 35834 ft | 397 kts | 207° |
| 2026-05-08 00:50 | 41.99785 | -71.30215 | 35840 ft | 398 kts | 207° |
| 2026-05-08 00:50 | 41.94577 | -71.32657 | 35607 ft | 398 kts | 207° |
| 2026-05-08 00:50 | 41.91927 | -71.33901 | 35925 ft | 400 kts | 207° |
| 2026-05-08 00:51 | 41.89301 | -71.35127 | 35576 ft | 400 kts | 207° |
| 2026-05-08 00:51 | 41.86718 | -71.36333 | 35323 ft | 396 kts | 207° |
| 2026-05-08 00:51 | 41.84105 | -71.37550 | 35012 ft | 395 kts | 207° |
| 2026-05-08 00:51 | 41.81540 | -71.38753 | 34634 ft | 394 kts | 208° |
| 2026-05-08 00:52 | 41.79017 | -71.40076 | 34131 ft | 391 kts | 210° |
| 2026-05-08 00:52 | 41.76546 | -71.41563 | 33605 ft | 388 kts | 213° |
| 2026-05-08 00:52 | 41.74134 | -71.43203 | 33087 ft | 387 kts | 215° |
| 2026-05-08 00:52 | 41.71806 | -71.44978 | 32539 ft | 387 kts | 217° |
| 2026-05-08 00:53 | 41.69551 | -71.46893 | 31925 ft | 388 kts | 219° |
| 2026-05-08 00:53 | 41.67342 | -71.48970 | 31109 ft | 392 kts | 221° |
| 2026-05-08 00:53 | 41.65196 | -71.51210 | 30487 ft | 391 kts | 224° |
| 2026-05-08 00:53 | 41.63104 | -71.53535 | 29927 ft | 390 kts | 224° |
| 2026-05-08 00:54 | 41.61038 | -71.55814 | 29359 ft | 389 kts | 224° |
| 2026-05-08 00:54 | 41.58951 | -71.58122 | 28815 ft | 387 kts | 224° |
| 2026-05-08 00:54 | 41.56913 | -71.60374 | 28352 ft | 383 kts | 224° |
| 2026-05-08 00:54 | 41.54864 | -71.62641 | 28029 ft | 376 kts | 224° |
| 2026-05-08 00:55 | 41.52873 | -71.64842 | 27701 ft | 370 kts | 224° |
| 2026-05-08 00:55 | 41.50928 | -71.66994 | 27385 ft | 364 kts | 224° |
| 2026-05-08 00:55 | 41.48989 | -71.69142 | 27064 ft | 359 kts | 224° |
| 2026-05-08 00:55 | 41.47071 | -71.71270 | 26749 ft | 355 kts | 224° |
| 2026-05-08 00:56 | 41.45184 | -71.73359 | 26436 ft | 351 kts | 224° |
| 2026-05-08 00:56 | 41.43309 | -71.75433 | 26120 ft | 348 kts | 224° |
| 2026-05-08 00:56 | 41.41448 | -71.77492 | 25803 ft | 346 kts | 224° |
| 2026-05-08 00:56 | 41.39614 | -71.79518 | 25490 ft | 344 kts | 224° |
| 2026-05-08 00:57 | 41.37799 | -71.81520 | 25175 ft | 341 kts | 224° |
| 2026-05-08 00:57 | 41.35965 | -71.83540 | 24856 ft | 340 kts | 224° |
| 2026-05-08 00:57 | 41.34144 | -71.85543 | 24539 ft | 339 kts | 224° |
| 2026-05-08 00:57 | 41.32337 | -71.87534 | 24223 ft | 338 kts | 224° |
| 2026-05-08 00:58 | 41.30541 | -71.89514 | 23931 ft | 343 kts | 224° |
| 2026-05-08 00:58 | 41.28693 | -71.91546 | 23849 ft | 336 kts | 224° |
| 2026-05-08 00:58 | 41.26941 | -71.93472 | 23850 ft | 325 kts | 223° |
| 2026-05-08 00:58 | 41.25182 | -71.95409 | 23793 ft | 329 kts | 224° |
| 2026-05-08 00:59 | 41.23418 | -71.97350 | 23394 ft | 330 kts | 224° |
| 2026-05-08 00:59 | 41.21661 | -71.99277 | 22995 ft | 329 kts | 223° |
| 2026-05-08 00:59 | 41.19895 | -72.01214 | 22593 ft | 326 kts | 223° |
| 2026-05-08 00:59 | 41.18158 | -72.03108 | 22196 ft | 324 kts | 224° |
| 2026-05-08 01:00 | 41.16417 | -72.05012 | 21798 ft | 321 kts | 224° |
| 2026-05-08 01:00 | 41.14710 | -72.06878 | 21403 ft | 319 kts | 224° |
| 2026-05-08 01:00 | 41.12997 | -72.08752 | 21007 ft | 317 kts | 224° |
| 2026-05-08 01:00 | 41.11431 | -72.10753 | 20608 ft | 312 kts | 232° |
| 2026-05-08 01:01 | 41.10173 | -72.13032 | 20212 ft | 308 kts | 239° |
| 2026-05-08 01:01 | 41.09200 | -72.15528 | 19572 ft | 305 kts | 247° |
| 2026-05-08 01:01 | 41.08492 | -72.18168 | 18754 ft | 302 kts | 249° |
| 2026-05-08 01:01 | 41.07834 | -72.20786 | 18251 ft | 299 kts | 249° |
| 2026-05-08 01:02 | 41.07190 | -72.23351 | 17767 ft | 296 kts | 250° |
| 2026-05-08 01:02 | 41.06545 | -72.25934 | 17423 ft | 295 kts | 250° |
| 2026-05-08 01:02 | 41.05908 | -72.28478 | 17086 ft | 296 kts | 250° |
| 2026-05-08 01:02 | 41.05265 | -72.31048 | 16757 ft | 295 kts | 251° |
| 2026-05-08 01:03 | 41.04616 | -72.33644 | 16398 ft | 295 kts | 250° |
| 2026-05-08 01:03 | 41.03983 | -72.36188 | 16061 ft | 294 kts | 251° |
| 2026-05-08 01:03 | 41.03338 | -72.38770 | 15722 ft | 293 kts | 251° |
| 2026-05-08 01:03 | 41.02702 | -72.41320 | 15347 ft | 293 kts | 251° |
| 2026-05-08 01:04 | 41.02063 | -72.43868 | 14972 ft | 291 kts | 251° |
| 2026-05-08 01:04 | 41.01434 | -72.46383 | 14609 ft | 290 kts | 252° |
| 2026-05-08 01:04 | 41.00800 | -72.48912 | 14233 ft | 290 kts | 252° |
| 2026-05-08 01:04 | 41.00171 | -72.51421 | 13857 ft | 289 kts | 252° |
| 2026-05-08 01:05 | 40.99538 | -72.53936 | 13496 ft | 289 kts | 252° |
| 2026-05-08 01:05 | 40.98898 | -72.56478 | 13124 ft | 290 kts | 252° |
| 2026-05-08 01:05 | 40.98262 | -72.59013 | 12743 ft | 290 kts | 253° |
| 2026-05-08 01:05 | 40.97634 | -72.61505 | 12472 ft | 289 kts | 253° |
| 2026-05-08 01:06 | 40.97001 | -72.64014 | 12205 ft | 285 kts | 253° |
| 2026-05-08 01:06 | 40.96378 | -72.66479 | 12009 ft | 279 kts | 252° |
| 2026-05-08 01:06 | 40.95778 | -72.68847 | 11987 ft | 267 kts | 253° |
| 2026-05-08 01:06 | 40.95203 | -72.71114 | 11978 ft | 255 kts | 253° |
| 2026-05-08 01:07 | 40.94637 | -72.73355 | 11987 ft | 256 kts | 253° |
| 2026-05-08 01:07 | 40.94078 | -72.75562 | 11990 ft | 257 kts | 253° |
| 2026-05-08 01:07 | 40.93501 | -72.77800 | 11992 ft | 257 kts | 250° |
| 2026-05-08 01:07 | 40.92589 | -72.79864 | 11981 ft | 262 kts | 235° |
| 2026-05-08 01:08 | 40.91262 | -72.81554 | 11987 ft | 267 kts | 223° |
| 2026-05-08 01:08 | 40.89782 | -72.83003 | 11771 ft | 266 kts | 222° |
| 2026-05-08 01:08 | 40.88294 | -72.84428 | 11409 ft | 268 kts | 222° |
| 2026-05-08 01:08 | 40.86773 | -72.85882 | 11060 ft | 270 kts | 221° |
| 2026-05-08 01:09 | 40.85239 | -72.87350 | 10732 ft | 271 kts | 221° |
| 2026-05-08 01:09 | 40.83713 | -72.88809 | 10408 ft | 272 kts | 222° |
| 2026-05-08 01:09 | 40.82190 | -72.90265 | 10093 ft | 272 kts | 221° |
| 2026-05-08 01:09 | 40.80666 | -72.91721 | 9806 ft | 272 kts | 221° |
| 2026-05-08 01:10 | 40.79138 | -72.93182 | 9490 ft | 272 kts | 222° |
| 2026-05-08 01:10 | 40.77603 | -72.94650 | 9194 ft | 272 kts | 221° |
| 2026-05-08 01:10 | 40.76088 | -72.96104 | 9003 ft | 267 kts | 223° |
| 2026-05-08 01:10 | 40.74924 | -72.97885 | 8983 ft | 245 kts | 249° |
| 2026-05-08 01:11 | 40.74323 | -72.99916 | 8936 ft | 234 kts | 256° |
| 2026-05-08 01:11 | 40.73848 | -73.01939 | 8797 ft | 229 kts | 257° |
| 2026-05-08 01:11 | 40.73408 | -73.03933 | 8561 ft | 229 kts | 257° |
| 2026-05-08 01:11 | 40.72974 | -73.05943 | 8297 ft | 230 kts | 257° |
| 2026-05-08 01:12 | 40.72539 | -73.07973 | 8046 ft | 230 kts | 257° |
| 2026-05-08 01:12 | 40.72107 | -73.10008 | 7784 ft | 231 kts | 257° |
| 2026-05-08 01:12 | 40.71682 | -73.12035 | 7544 ft | 230 kts | 257° |
| 2026-05-08 01:12 | 40.71253 | -73.14082 | 7287 ft | 231 kts | 257° |
| 2026-05-08 01:13 | 40.70827 | -73.16107 | 7028 ft | 232 kts | 257° |
| 2026-05-08 01:13 | 40.70398 | -73.18149 | 6778 ft | 232 kts | 257° |
| 2026-05-08 01:13 | 40.69970 | -73.20192 | 6544 ft | 232 kts | 257° |
| 2026-05-08 01:13 | 40.69541 | -73.22244 | 6296 ft | 233 kts | 257° |
| 2026-05-08 01:14 | 40.69116 | -73.24305 | 6055 ft | 233 kts | 257° |
| 2026-05-08 01:14 | 40.68726 | -73.26360 | 5833 ft | 231 kts | 266° |
| 2026-05-08 01:14 | 40.68854 | -73.28444 | 5591 ft | 228 kts | 284° |
| 2026-05-08 01:14 | 40.69242 | -73.30464 | 5385 ft | 226 kts | 287° |
| 2026-05-08 01:15 | 40.69665 | -73.32433 | 5179 ft | 226 kts | 288° |
| 2026-05-08 01:15 | 40.70096 | -73.34427 | 4858 ft | 225 kts | 288° |
| 2026-05-08 01:15 | 40.70517 | -73.36407 | 4341 ft | 232 kts | 288° |
| 2026-05-08 01:15 | 40.70935 | -73.38425 | 4109 ft | 225 kts | 288° |
| 2026-05-08 01:16 | 40.71325 | -73.40350 | 3898 ft | 215 kts | 288° |
| 2026-05-08 01:16 | 40.71691 | -73.42201 | 3696 ft | 205 kts | 288° |
| 2026-05-08 01:16 | 40.72041 | -73.44009 | 3405 ft | 200 kts | 288° |
| 2026-05-08 01:16 | 40.72376 | -73.45766 | 3122 ft | 200 kts | 288° |
| 2026-05-08 01:17 | 40.72702 | -73.47482 | 3007 ft | 197 kts | 288° |
| 2026-05-08 01:17 | 40.73040 | -73.49248 | 3008 ft | 199 kts | 288° |
| 2026-05-08 01:17 | 40.73381 | -73.51005 | 2993 ft | 193 kts | 288° |
| 2026-05-08 01:17 | 40.73704 | -73.52675 | 2994 ft | 188 kts | 288° |
| 2026-05-08 01:18 | 40.74026 | -73.54358 | 3001 ft | 188 kts | 288° |
| 2026-05-08 01:18 | 40.74344 | -73.56016 | 3003 ft | 188 kts | 288° |
| 2026-05-08 01:18 | 40.74663 | -73.57702 | 2973 ft | 186 kts | 288° |
| 2026-05-08 01:18 | 40.74974 | -73.59344 | 2728 ft | 187 kts | 288° |
| 2026-05-08 01:19 | 40.75285 | -73.60989 | 2452 ft | 188 kts | 288° |
| 2026-05-08 01:19 | 40.75605 | -73.62678 | 2243 ft | 188 kts | 288° |
| 2026-05-08 01:19 | 40.75761 | -73.64361 | 2036 ft | 192 kts | 261° |
| 2026-05-08 01:19 | 40.75244 | -73.65949 | 2028 ft | 197 kts | 242° |
| 2026-05-08 01:20 | 40.74435 | -73.67403 | 2014 ft | 199 kts | 227° |
| 2026-05-08 01:20 | 40.73476 | -73.68457 | 1988 ft | 186 kts | 218° |
| 2026-05-08 01:20 | 40.72476 | -73.69314 | 1846 ft | 179 kts | 214° |
| 2026-05-08 01:20 | 40.71461 | -73.70094 | 1626 ft | 174 kts | 212° |
| 2026-05-08 01:21 | 40.70428 | -73.70877 | 1385 ft | 170 kts | 212° |
| 2026-05-08 01:21 | 40.69451 | -73.71632 | 1147 ft | 165 kts | 213° |
| 2026-05-08 01:21 | 40.68498 | -73.72379 | 956 ft | 157 kts | 213° |
| 2026-05-08 01:21 | 40.67656 | -73.73048 | 767 ft | 151 kts | 212° |
| 2026-05-08 01:22 | 40.66746 | -73.73770 | 581 ft | 147 kts | 212° |
| 2026-05-08 01:22 | 40.65868 | -73.74438 | 372 ft | 145 kts | 212° |
| 2026-05-08 01:22 | 40.65002 | -73.75109 | 189 ft | 143 kts | 211° |
| 2026-05-08 01:22 | 40.64155 | -73.75777 | 35 ft | 140 kts | 210° |
| 2026-05-08 01:23 | 40.63507 | -73.76280 | 30 ft | 65 kts | 211° |
| 2026-05-08 01:23 | 40.63164 | -73.76550 | 30 ft | 46 kts | 210° |
| 2026-05-08 01:23 | 40.62992 | -73.76748 | 30 ft | 21 kts | 235° |
| 2026-05-08 01:23 | 40.62940 | -73.76872 | 30 ft | 5 kts | 243° |
| 2026-05-08 01:24 | 40.62928 | -73.76915 | 30 ft | 5 kts | 257° |
| 2026-05-08 01:24 | 40.62932 | -73.76973 | 30 ft | 7 kts | 290° |
| 2026-05-08 01:24 | 40.62958 | -73.77035 | 30 ft | 8 kts | 301° |
| 2026-05-08 01:24 | 40.62993 | -73.77110 | 30 ft | 10 kts | 301° |
| 2026-05-08 01:25 | 40.63031 | -73.77193 | 30 ft | 12 kts | 301° |
| 2026-05-08 01:25 | 40.63075 | -73.77291 | 30 ft | 14 kts | 301° |
| 2026-05-08 01:25 | 40.63124 | -73.77399 | 30 ft | 14 kts | 301° |
| 2026-05-08 01:25 | 40.63173 | -73.77507 | 30 ft | 15 kts | 300° |
| 2026-05-08 01:26 | 40.63224 | -73.77619 | 30 ft | 15 kts | 301° |
| 2026-05-08 01:26 | 40.63274 | -73.77728 | 30 ft | 16 kts | 301° |
| 2026-05-08 01:26 | 40.63312 | -73.77808 | 30 ft | 10 kts | 314° |
| 2026-05-08 01:26 | 40.63368 | -73.77812 | 30 ft | 10 kts | 21° |
| 2026-05-08 01:27 | 40.63428 | -73.77769 | 30 ft | 11 kts | 30° |
| 2026-05-08 01:27 | 40.63492 | -73.77718 | 30 ft | 13 kts | 31° |
| 2026-05-08 01:27 | 40.63566 | -73.77659 | 30 ft | 14 kts | 31° |
| 2026-05-08 01:27 | 40.63646 | -73.77596 | 30 ft | 15 kts | 30° |
| 2026-05-08 01:28 | 40.63744 | -73.77521 | 30 ft | 15 kts | 30° |
| 2026-05-08 01:28 | 40.63828 | -73.77456 | 30 ft | 16 kts | 31° |
| 2026-05-08 01:28 | 40.63908 | -73.77392 | 30 ft | 15 kts | 32° |
| 2026-05-08 01:28 | 40.63986 | -73.77331 | 30 ft | 15 kts | 31° |
| 2026-05-08 01:29 | 40.64066 | -73.77268 | 30 ft | 15 kts | 31° |
| 2026-05-08 01:29 | 40.64148 | -73.77204 | 30 ft | 15 kts | 30° |
| 2026-05-08 01:29 | 40.64233 | -73.77139 | 30 ft | 15 kts | 30° |
| 2026-05-08 01:29 | 40.64317 | -73.77073 | 30 ft | 16 kts | 31° |
| 2026-05-08 01:30 | 40.64412 | -73.77008 | 30 ft | 16 kts | 21° |
| 2026-05-08 01:30 | 40.64516 | -73.76988 | 30 ft | 16 kts | 2° |
| 2026-05-08 01:30 | 40.64624 | -73.76988 | 30 ft | 17 kts | 353° |
| 2026-05-08 01:30 | 40.64718 | -73.77025 | 30 ft | 15 kts | 328° |
| 2026-05-08 01:31 | 40.64782 | -73.77106 | 30 ft | 14 kts | 302° |
| 2026-05-08 01:31 | 40.64824 | -73.77201 | 30 ft | 14 kts | 300° |
| 2026-05-08 01:31 | 40.64867 | -73.77297 | 30 ft | 15 kts | 300° |
| 2026-05-08 01:31 | 40.64911 | -73.77396 | 30 ft | 15 kts | 301° |
| 2026-05-08 01:32 | 40.64961 | -73.77506 | 30 ft | 18 kts | 301° |
| 2026-05-08 01:32 | 40.65013 | -73.77621 | 30 ft | 17 kts | 299° |
| 2026-05-08 01:32 | 40.65061 | -73.77729 | 30 ft | 16 kts | 301° |
| 2026-05-08 01:32 | 40.65108 | -73.77831 | 30 ft | 15 kts | 301° |
| 2026-05-08 01:33 | 40.65153 | -73.77930 | 30 ft | 15 kts | 301° |
| 2026-05-08 01:33 | 40.65198 | -73.78028 | 30 ft | 14 kts | 301° |
| 2026-05-08 01:33 | 40.65222 | -73.78086 | 30 ft | 3 kts | 281° |
| 2026-05-08 01:33 | 40.65215 | -73.78113 | 30 ft | 3 kts | 230° |
| 2026-05-08 01:34 | 40.65197 | -73.78139 | 30 ft | 5 kts | 230° |
| 2026-05-08 01:34 | 40.65185 | -73.78188 | 30 ft | 7 kts | 270° |
| 2026-05-08 01:34 | 40.65178 | -73.78239 | 30 ft | 5 kts | 238° |
| 2026-05-08 01:34 | 40.65158 | -73.78262 | 30 ft | 3 kts | 215° |
| 2026-05-08 01:35 | 40.65139 | -73.78280 | 30 ft | 4 kts | 215° |
| 2026-05-08 01:35 | 40.65117 | -73.78300 | 30 ft | 4 kts | 214° |
| 2026-05-08 01:35 | 40.65109 | -73.78307 | 30 ft | 0 kts | 215° |